sensor_id;sensor_type;location;lat;lon;timestamp;P1;durP1;ratioP1;P2;durP2;ratioP2
35290;SDS011;21411;50.024;19.220;2023-08-06T00:02:14;37.10;;;33.20;;
35290;SDS011;21411;50.024;19.220;2023-08-06T00:04:40;34.30;;;30.70;;
35290;SDS011;21411;50.024;19.220;2023-08-06T00:07:07;33.80;;;30.20;;
35290;SDS011;21411;50.024;19.220;2023-08-06T00:09:33;35.20;;;31.30;;
35290;SDS011;21411;50.024;19.220;2023-08-06T00:12:00;37.00;;;30.80;;
35290;SDS011;21411;50.024;19.220;2023-08-06T00:14:26;34.10;;;30.40;;
35290;SDS011;21411;50.024;19.220;2023-08-06T00:16:53;33.20;;;29.70;;
35290;SDS011;21411;50.024;19.220;2023-08-06T00:19:19;33.30;;;29.90;;
35290;SDS011;21411;50.024;19.220;2023-08-06T00:21:46;34.20;;;28.80;;
35290;SDS011;21411;50.024;19.220;2023-08-06T00:24:12;34.50;;;28.70;;
35290;SDS011;21411;50.024;19.220;2023-08-06T00:26:39;33.80;;;29.50;;
35290;SDS011;21411;50.024;19.220;2023-08-06T00:29:06;33.00;;;27.60;;
35290;SDS011;21411;50.024;19.220;2023-08-06T00:31:32;32.40;;;28.60;;
35290;SDS011;21411;50.024;19.220;2023-08-06T00:33:59;31.20;;;28.00;;
35290;SDS011;21411;50.024;19.220;2023-08-06T00:36:25;34.70;;;30.90;;
35290;SDS011;21411;50.024;19.220;2023-08-06T00:38:52;34.80;;;29.50;;
35290;SDS011;21411;50.024;19.220;2023-08-06T00:41:18;34.30;;;30.20;;
35290;SDS011;21411;50.024;19.220;2023-08-06T00:43:45;34.70;;;31.00;;
35290;SDS011;21411;50.024;19.220;2023-08-06T00:46:12;34.40;;;30.20;;
35290;SDS011;21411;50.024;19.220;2023-08-06T00:48:39;33.50;;;30.10;;
35290;SDS011;21411;50.024;19.220;2023-08-06T00:51:07;36.10;;;32.10;;
35290;SDS011;21411;50.024;19.220;2023-08-06T00:53:39;35.70;;;31.90;;
35290;SDS011;21411;50.024;19.220;2023-08-06T00:56:06;33.60;;;30.00;;
35290;SDS011;21411;50.024;19.220;2023-08-06T00:58:35;35.30;;;30.50;;
35290;SDS011;21411;50.024;19.220;2023-08-06T01:01:02;35.20;;;31.60;;
35290;SDS011;21411;50.024;19.220;2023-08-06T01:03:29;38.50;;;32.10;;
35290;SDS011;21411;50.024;19.220;2023-08-06T01:05:55;34.80;;;30.60;;
35290;SDS011;21411;50.024;19.220;2023-08-06T01:13:50;37.90;;;28.30;;
35290;SDS011;21411;50.024;19.220;2023-08-06T01:16:24;33.40;;;30.00;;
35290;SDS011;21411;50.024;19.220;2023-08-06T01:18:51;35.20;;;30.10;;
35290;SDS011;21411;50.024;19.220;2023-08-06T01:21:18;33.90;;;30.00;;
35290;SDS011;21411;50.024;19.220;2023-08-06T01:23:45;31.60;;;28.30;;
35290;SDS011;21411;50.024;19.220;2023-08-06T01:29:09;33.20;;;29.60;;
35290;SDS011;21411;50.024;19.220;2023-08-06T01:31:50;31.70;;;28.30;;
35290;SDS011;21411;50.024;19.220;2023-08-06T01:34:22;33.10;;;29.10;;
35290;SDS011;21411;50.024;19.220;2023-08-06T01:36:51;31.70;;;28.50;;
35290;SDS011;21411;50.024;19.220;2023-08-06T01:39:19;33.30;;;28.80;;
35290;SDS011;21411;50.024;19.220;2023-08-06T01:41:48;33.30;;;29.30;;
35290;SDS011;21411;50.024;19.220;2023-08-06T01:44:15;33.80;;;30.10;;
35290;SDS011;21411;50.024;19.220;2023-08-06T01:46:42;35.00;;;31.50;;
35290;SDS011;21411;50.024;19.220;2023-08-06T01:49:08;32.30;;;28.90;;
35290;SDS011;21411;50.024;19.220;2023-08-06T01:51:35;31.80;;;28.70;;
35290;SDS011;21411;50.024;19.220;2023-08-06T01:54:02;32.30;;;28.90;;
35290;SDS011;21411;50.024;19.220;2023-08-06T01:56:28;31.30;;;28.20;;
35290;SDS011;21411;50.024;19.220;2023-08-06T01:58:55;31.70;;;28.40;;
35290;SDS011;21411;50.024;19.220;2023-08-06T02:01:21;31.60;;;28.50;;
35290;SDS011;21411;50.024;19.220;2023-08-06T02:03:48;30.80;;;27.60;;
35290;SDS011;21411;50.024;19.220;2023-08-06T02:06:14;32.20;;;28.70;;
35290;SDS011;21411;50.024;19.220;2023-08-06T02:08:41;32.70;;;29.30;;
35290;SDS011;21411;50.024;19.220;2023-08-06T02:11:08;32.30;;;29.00;;
35290;SDS011;21411;50.024;19.220;2023-08-06T02:13:34;33.70;;;30.20;;
35290;SDS011;21411;50.024;19.220;2023-08-06T02:16:01;32.50;;;29.00;;
35290;SDS011;21411;50.024;19.220;2023-08-06T02:18:27;37.10;;;30.90;;
35290;SDS011;21411;50.024;19.220;2023-08-06T02:20:57;35.10;;;31.40;;
35290;SDS011;21411;50.024;19.220;2023-08-06T02:23:25;36.00;;;32.10;;
35290;SDS011;21411;50.024;19.220;2023-08-06T02:26:03;42.50;;;34.50;;
35290;SDS011;21411;50.024;19.220;2023-08-06T02:28:31;41.90;;;34.20;;
35290;SDS011;21411;50.024;19.220;2023-08-06T02:30:58;45.70;;;37.70;;
35290;SDS011;21411;50.024;19.220;2023-08-06T02:33:24;41.20;;;34.90;;
35290;SDS011;21411;50.024;19.220;2023-08-06T02:35:51;43.00;;;34.70;;
35290;SDS011;21411;50.024;19.220;2023-08-06T02:38:25;45.40;;;34.10;;
35290;SDS011;21411;50.024;19.220;2023-08-06T02:40:51;46.60;;;34.90;;
35290;SDS011;21411;50.024;19.220;2023-08-06T02:43:18;52.00;;;36.00;;
35290;SDS011;21411;50.024;19.220;2023-08-06T02:45:44;59.40;;;37.90;;
35290;SDS011;21411;50.024;19.220;2023-08-06T02:48:11;60.00;;;39.00;;
35290;SDS011;21411;50.024;19.220;2023-08-06T02:50:38;68.30;;;38.70;;
35290;SDS011;21411;50.024;19.220;2023-08-06T02:53:06;68.90;;;38.20;;
35290;SDS011;21411;50.024;19.220;2023-08-06T02:55:33;66.50;;;38.40;;
35290;SDS011;21411;50.024;19.220;2023-08-06T02:58:01;59.80;;;38.10;;
35290;SDS011;21411;50.024;19.220;2023-08-06T03:00:28;65.50;;;39.00;;
35290;SDS011;21411;50.024;19.220;2023-08-06T03:02:54;67.10;;;37.80;;
35290;SDS011;21411;50.024;19.220;2023-08-06T03:05:21;63.00;;;36.20;;
35290;SDS011;21411;50.024;19.220;2023-08-06T03:07:48;74.40;;;37.00;;
35290;SDS011;21411;50.024;19.220;2023-08-06T03:10:14;66.50;;;32.50;;
35290;SDS011;21411;50.024;19.220;2023-08-06T03:12:41;55.30;;;32.20;;
35290;SDS011;21411;50.024;19.220;2023-08-06T03:15:07;59.20;;;32.50;;
35290;SDS011;21411;50.024;19.220;2023-08-06T03:17:34;57.40;;;31.50;;
35290;SDS011;21411;50.024;19.220;2023-08-06T03:20:01;54.70;;;32.10;;
35290;SDS011;21411;50.024;19.220;2023-08-06T03:22:27;71.30;;;32.60;;
35290;SDS011;21411;50.024;19.220;2023-08-06T03:24:54;64.30;;;33.30;;
35290;SDS011;21411;50.024;19.220;2023-08-06T03:27:20;58.00;;;33.00;;
35290;SDS011;21411;50.024;19.220;2023-08-06T03:29:50;62.40;;;33.90;;
35290;SDS011;21411;50.024;19.220;2023-08-06T03:32:17;59.00;;;33.00;;
35290;SDS011;21411;50.024;19.220;2023-08-06T03:34:44;67.60;;;33.20;;
35290;SDS011;21411;50.024;19.220;2023-08-06T03:37:10;64.10;;;30.60;;
35290;SDS011;21411;50.024;19.220;2023-08-06T03:39:37;55.70;;;32.00;;
35290;SDS011;21411;50.024;19.220;2023-08-06T03:42:04;51.20;;;30.50;;
35290;SDS011;21411;50.024;19.220;2023-08-06T03:44:31;49.40;;;28.10;;
35290;SDS011;21411;50.024;19.220;2023-08-06T03:46:57;49.30;;;28.90;;
35290;SDS011;21411;50.024;19.220;2023-08-06T03:49:24;46.70;;;28.60;;
35290;SDS011;21411;50.024;19.220;2023-08-06T03:51:50;53.00;;;31.00;;
35290;SDS011;21411;50.024;19.220;2023-08-06T03:54:17;49.30;;;29.20;;
35290;SDS011;21411;50.024;19.220;2023-08-06T03:56:43;52.90;;;30.50;;
35290;SDS011;21411;50.024;19.220;2023-08-06T03:59:10;52.70;;;30.00;;
35290;SDS011;21411;50.024;19.220;2023-08-06T04:01:37;52.70;;;30.40;;
35290;SDS011;21411;50.024;19.220;2023-08-06T04:04:03;50.60;;;28.20;;
35290;SDS011;21411;50.024;19.220;2023-08-06T04:06:30;48.40;;;28.50;;
35290;SDS011;21411;50.024;19.220;2023-08-06T04:08:56;36.20;;;23.70;;
35290;SDS011;21411;50.024;19.220;2023-08-06T04:11:23;41.50;;;24.10;;
35290;SDS011;21411;50.024;19.220;2023-08-06T04:13:49;33.90;;;22.50;;
35290;SDS011;21411;50.024;19.220;2023-08-06T04:16:16;32.70;;;21.60;;
35290;SDS011;21411;50.024;19.220;2023-08-06T04:18:43;33.50;;;22.50;;
35290;SDS011;21411;50.024;19.220;2023-08-06T04:21:09;32.60;;;21.30;;
35290;SDS011;21411;50.024;19.220;2023-08-06T04:23:36;26.50;;;19.10;;
35290;SDS011;21411;50.024;19.220;2023-08-06T04:26:02;23.40;;;18.40;;
35290;SDS011;21411;50.024;19.220;2023-08-06T04:28:29;21.90;;;18.00;;
35290;SDS011;21411;50.024;19.220;2023-08-06T04:30:56;21.70;;;16.10;;
35290;SDS011;21411;50.024;19.220;2023-08-06T04:33:23;21.50;;;16.00;;
35290;SDS011;21411;50.024;19.220;2023-08-06T04:35:53;21.80;;;15.30;;
35290;SDS011;21411;50.024;19.220;2023-08-06T04:38:23;18.60;;;14.60;;
35290;SDS011;21411;50.024;19.220;2023-08-06T04:40:51;25.30;;;15.00;;
35290;SDS011;21411;50.024;19.220;2023-08-06T04:43:18;20.40;;;13.90;;
35290;SDS011;21411;50.024;19.220;2023-08-06T04:45:48;18.70;;;11.90;;
35290;SDS011;21411;50.024;19.220;2023-08-06T04:48:16;20.50;;;12.30;;
35290;SDS011;21411;50.024;19.220;2023-08-06T04:50:43;16.10;;;11.70;;
35290;SDS011;21411;50.024;19.220;2023-08-06T04:53:11;16.20;;;12.10;;
35290;SDS011;21411;50.024;19.220;2023-08-06T04:55:37;12.00;;;9.90;;
35290;SDS011;21411;50.024;19.220;2023-08-06T04:58:04;10.30;;;9.20;;
35290;SDS011;21411;50.024;19.220;2023-08-06T05:00:31;10.70;;;8.10;;
35290;SDS011;21411;50.024;19.220;2023-08-06T05:02:59;8.50;;;7.20;;
35290;SDS011;21411;50.024;19.220;2023-08-06T05:05:27;5.70;;;4.70;;
35290;SDS011;21411;50.024;19.220;2023-08-06T05:07:55;5.30;;;4.80;;
35290;SDS011;21411;50.024;19.220;2023-08-06T05:10:26;5.10;;;4.30;;
35290;SDS011;21411;50.024;19.220;2023-08-06T05:12:53;4.10;;;3.30;;
35290;SDS011;21411;50.024;19.220;2023-08-06T05:15:20;3.60;;;3.20;;
35290;SDS011;21411;50.024;19.220;2023-08-06T05:17:47;3.40;;;3.00;;
35290;SDS011;21411;50.024;19.220;2023-08-06T05:20:14;3.50;;;2.80;;
35290;SDS011;21411;50.024;19.220;2023-08-06T05:22:41;3.90;;;2.70;;
35290;SDS011;21411;50.024;19.220;2023-08-06T05:25:08;5.80;;;2.80;;
35290;SDS011;21411;50.024;19.220;2023-08-06T05:27:34;3.60;;;2.70;;
35290;SDS011;21411;50.024;19.220;2023-08-06T05:30:02;2.20;;;1.90;;
35290;SDS011;21411;50.024;19.220;2023-08-06T05:32:29;2.00;;;1.70;;
35290;SDS011;21411;50.024;19.220;2023-08-06T05:34:56;2.30;;;1.90;;
35290;SDS011;21411;50.024;19.220;2023-08-06T05:37:22;5.40;;;1.80;;
35290;SDS011;21411;50.024;19.220;2023-08-06T05:39:49;1.80;;;1.50;;
35290;SDS011;21411;50.024;19.220;2023-08-06T05:42:16;2.10;;;1.40;;
35290;SDS011;21411;50.024;19.220;2023-08-06T05:44:42;5.20;;;1.60;;
35290;SDS011;21411;50.024;19.220;2023-08-06T05:47:09;3.10;;;1.90;;
35290;SDS011;21411;50.024;19.220;2023-08-06T05:49:36;3.60;;;2.20;;
35290;SDS011;21411;50.024;19.220;2023-08-06T05:52:02;2.20;;;1.30;;
35290;SDS011;21411;50.024;19.220;2023-08-06T05:54:32;1.20;;;0.80;;
35290;SDS011;21411;50.024;19.220;2023-08-06T05:56:59;1.20;;;1.00;;
35290;SDS011;21411;50.024;19.220;2023-08-06T05:59:25;2.20;;;0.70;;
35290;SDS011;21411;50.024;19.220;2023-08-06T06:01:52;0.70;;;0.70;;
35290;SDS011;21411;50.024;19.220;2023-08-06T06:04:19;3.30;;;0.70;;
35290;SDS011;21411;50.024;19.220;2023-08-06T06:06:46;1.20;;;0.80;;
35290;SDS011;21411;50.024;19.220;2023-08-06T06:09:12;1.40;;;0.60;;
35290;SDS011;21411;50.024;19.220;2023-08-06T06:11:39;2.30;;;0.60;;
35290;SDS011;21411;50.024;19.220;2023-08-06T06:14:06;1.60;;;0.80;;
35290;SDS011;21411;50.024;19.220;2023-08-06T06:16:33;1.00;;;0.70;;
35290;SDS011;21411;50.024;19.220;2023-08-06T06:19:00;3.00;;;0.70;;
35290;SDS011;21411;50.024;19.220;2023-08-06T06:21:27;3.80;;;0.80;;
35290;SDS011;21411;50.024;19.220;2023-08-06T06:23:53;1.50;;;0.70;;
35290;SDS011;21411;50.024;19.220;2023-08-06T06:26:20;3.00;;;0.60;;
35290;SDS011;21411;50.024;19.220;2023-08-06T06:28:47;2.50;;;0.40;;
35290;SDS011;21411;50.024;19.220;2023-08-06T06:31:13;1.90;;;0.50;;
35290;SDS011;21411;50.024;19.220;2023-08-06T06:33:40;1.80;;;0.60;;
35290;SDS011;21411;50.024;19.220;2023-08-06T06:36:06;1.50;;;0.50;;
35290;SDS011;21411;50.024;19.220;2023-08-06T06:38:34;1.50;;;0.40;;
35290;SDS011;21411;50.024;19.220;2023-08-06T06:41:00;2.90;;;0.80;;
35290;SDS011;21411;50.024;19.220;2023-08-06T06:43:29;2.60;;;1.70;;
35290;SDS011;21411;50.024;19.220;2023-08-06T06:45:56;0.50;;;0.50;;
35290;SDS011;21411;50.024;19.220;2023-08-06T06:48:31;0.70;;;0.40;;
35290;SDS011;21411;50.024;19.220;2023-08-06T06:50:58;0.70;;;0.20;;
35290;SDS011;21411;50.024;19.220;2023-08-06T06:53:25;1.40;;;0.40;;
35290;SDS011;21411;50.024;19.220;2023-08-06T06:55:55;0.80;;;0.30;;
35290;SDS011;21411;50.024;19.220;2023-08-06T06:58:22;1.30;;;0.50;;
35290;SDS011;21411;50.024;19.220;2023-08-06T07:00:49;1.40;;;0.40;;
35290;SDS011;21411;50.024;19.220;2023-08-06T07:03:15;1.10;;;0.30;;
35290;SDS011;21411;50.024;19.220;2023-08-06T07:05:42;4.20;;;0.60;;
35290;SDS011;21411;50.024;19.220;2023-08-06T07:08:10;2.80;;;0.80;;
35290;SDS011;21411;50.024;19.220;2023-08-06T07:10:37;1.80;;;0.50;;
35290;SDS011;21411;50.024;19.220;2023-08-06T07:13:04;1.00;;;0.40;;
35290;SDS011;21411;50.024;19.220;2023-08-06T07:15:31;2.60;;;0.60;;
35290;SDS011;21411;50.024;19.220;2023-08-06T07:17:58;0.70;;;0.20;;
35290;SDS011;21411;50.024;19.220;2023-08-06T07:20:24;0.30;;;0.30;;
35290;SDS011;21411;50.024;19.220;2023-08-06T07:22:51;0.90;;;0.30;;
35290;SDS011;21411;50.024;19.220;2023-08-06T07:25:17;2.00;;;0.40;;
35290;SDS011;21411;50.024;19.220;2023-08-06T07:27:44;0.30;;;0.30;;
35290;SDS011;21411;50.024;19.220;2023-08-06T07:30:11;1.30;;;0.20;;
35290;SDS011;21411;50.024;19.220;2023-08-06T07:32:38;0.60;;;0.30;;
35290;SDS011;21411;50.024;19.220;2023-08-06T07:35:04;0.60;;;0.20;;
35290;SDS011;21411;50.024;19.220;2023-08-06T07:37:31;1.10;;;0.20;;
35290;SDS011;21411;50.024;19.220;2023-08-06T07:39:58;0.20;;;0.20;;
35290;SDS011;21411;50.024;19.220;2023-08-06T07:42:24;0.50;;;0.20;;
35290;SDS011;21411;50.024;19.220;2023-08-06T07:44:52;1.90;;;0.60;;
35290;SDS011;21411;50.024;19.220;2023-08-06T07:47:21;1.00;;;0.90;;
35290;SDS011;21411;50.024;19.220;2023-08-06T07:49:47;1.30;;;0.60;;
35290;SDS011;21411;50.024;19.220;2023-08-06T07:52:14;1.50;;;0.50;;
35290;SDS011;21411;50.024;19.220;2023-08-06T07:54:41;0.60;;;0.40;;
35290;SDS011;21411;50.024;19.220;2023-08-06T07:57:07;0.30;;;0.20;;
35290;SDS011;21411;50.024;19.220;2023-08-06T07:59:34;2.20;;;0.40;;
35290;SDS011;21411;50.024;19.220;2023-08-06T08:02:01;0.30;;;0.30;;
35290;SDS011;21411;50.024;19.220;2023-08-06T08:04:27;1.30;;;0.50;;
35290;SDS011;21411;50.024;19.220;2023-08-06T08:06:54;0.60;;;0.50;;
35290;SDS011;21411;50.024;19.220;2023-08-06T08:09:20;1.60;;;0.30;;
35290;SDS011;21411;50.024;19.220;2023-08-06T08:11:47;0.70;;;0.20;;
35290;SDS011;21411;50.024;19.220;2023-08-06T08:14:13;0.30;;;0.20;;
35290;SDS011;21411;50.024;19.220;2023-08-06T08:16:40;0.20;;;0.20;;
35290;SDS011;21411;50.024;19.220;2023-08-06T08:19:07;0.30;;;0.30;;
35290;SDS011;21411;50.024;19.220;2023-08-06T08:21:33;1.70;;;0.30;;
35290;SDS011;21411;50.024;19.220;2023-08-06T08:24:00;0.30;;;0.30;;
35290;SDS011;21411;50.024;19.220;2023-08-06T08:26:27;0.90;;;0.50;;
35290;SDS011;21411;50.024;19.220;2023-08-06T08:28:54;1.10;;;0.60;;
35290;SDS011;21411;50.024;19.220;2023-08-06T08:31:21;0.30;;;0.20;;
35290;SDS011;21411;50.024;19.220;2023-08-06T08:33:47;0.50;;;0.20;;
35290;SDS011;21411;50.024;19.220;2023-08-06T08:36:14;0.80;;;0.60;;
35290;SDS011;21411;50.024;19.220;2023-08-06T08:38:41;0.20;;;0.20;;
35290;SDS011;21411;50.024;19.220;2023-08-06T08:41:09;0.50;;;0.20;;
35290;SDS011;21411;50.024;19.220;2023-08-06T08:43:36;0.60;;;0.40;;
35290;SDS011;21411;50.024;19.220;2023-08-06T08:46:03;0.30;;;0.30;;
35290;SDS011;21411;50.024;19.220;2023-08-06T08:48:31;0.40;;;0.30;;
35290;SDS011;21411;50.024;19.220;2023-08-06T08:50:58;0.50;;;0.40;;
35290;SDS011;21411;50.024;19.220;2023-08-06T08:53:25;0.70;;;0.40;;
35290;SDS011;21411;50.024;19.220;2023-08-06T08:55:53;2.10;;;0.40;;
35290;SDS011;21411;50.024;19.220;2023-08-06T08:58:20;0.30;;;0.30;;
35290;SDS011;21411;50.024;19.220;2023-08-06T09:00:47;0.70;;;0.60;;
35290;SDS011;21411;50.024;19.220;2023-08-06T09:03:17;0.80;;;0.50;;
35290;SDS011;21411;50.024;19.220;2023-08-06T09:05:45;0.90;;;0.50;;
35290;SDS011;21411;50.024;19.220;2023-08-06T09:08:18;0.90;;;0.50;;
35290;SDS011;21411;50.024;19.220;2023-08-06T09:10:48;1.80;;;0.50;;
35290;SDS011;21411;50.024;19.220;2023-08-06T09:13:16;1.60;;;0.40;;
35290;SDS011;21411;50.024;19.220;2023-08-06T09:15:42;1.30;;;0.40;;
35290;SDS011;21411;50.024;19.220;2023-08-06T09:18:10;3.70;;;1.00;;
35290;SDS011;21411;50.024;19.220;2023-08-06T09:20:38;0.80;;;0.40;;
35290;SDS011;21411;50.024;19.220;2023-08-06T09:23:09;0.30;;;0.20;;
35290;SDS011;21411;50.024;19.220;2023-08-06T09:25:39;0.80;;;0.30;;
35290;SDS011;21411;50.024;19.220;2023-08-06T09:28:09;1.00;;;0.70;;
35290;SDS011;21411;50.024;19.220;2023-08-06T09:30:36;1.90;;;0.50;;
35290;SDS011;21411;50.024;19.220;2023-08-06T09:33:07;1.00;;;0.70;;
35290;SDS011;21411;50.024;19.220;2023-08-06T09:35:38;0.50;;;0.40;;
35290;SDS011;21411;50.024;19.220;2023-08-06T09:38:08;0.30;;;0.30;;
35290;SDS011;21411;50.024;19.220;2023-08-06T09:40:37;0.80;;;0.40;;
35290;SDS011;21411;50.024;19.220;2023-08-06T09:43:05;0.20;;;0.20;;
35290;SDS011;21411;50.024;19.220;2023-08-06T09:45:36;0.30;;;0.30;;
35290;SDS011;21411;50.024;19.220;2023-08-06T09:48:04;0.40;;;0.30;;
35290;SDS011;21411;50.024;19.220;2023-08-06T09:50:33;0.40;;;0.40;;
35290;SDS011;21411;50.024;19.220;2023-08-06T09:53:07;1.30;;;0.50;;
35290;SDS011;21411;50.024;19.220;2023-08-06T09:55:34;0.60;;;0.30;;
35290;SDS011;21411;50.024;19.220;2023-08-06T09:58:01;0.40;;;0.40;;
35290;SDS011;21411;50.024;19.220;2023-08-06T10:00:28;2.00;;;0.50;;
35290;SDS011;21411;50.024;19.220;2023-08-06T10:02:59;0.60;;;0.50;;
35290;SDS011;21411;50.024;19.220;2023-08-06T10:05:26;1.10;;;0.40;;
35290;SDS011;21411;50.024;19.220;2023-08-06T10:07:53;0.40;;;0.40;;
35290;SDS011;21411;50.024;19.220;2023-08-06T10:10:22;0.20;;;0.20;;
35290;SDS011;21411;50.024;19.220;2023-08-06T10:12:49;0.30;;;0.30;;
35290;SDS011;21411;50.024;19.220;2023-08-06T10:15:22;1.40;;;0.30;;
35290;SDS011;21411;50.024;19.220;2023-08-06T10:17:53;0.40;;;0.30;;
35290;SDS011;21411;50.024;19.220;2023-08-06T10:20:23;0.30;;;0.30;;
35290;SDS011;21411;50.024;19.220;2023-08-06T10:23:03;0.20;;;0.20;;
35290;SDS011;21411;50.024;19.220;2023-08-06T10:25:35;1.20;;;0.50;;
35290;SDS011;21411;50.024;19.220;2023-08-06T10:28:07;1.60;;;0.50;;
35290;SDS011;21411;50.024;19.220;2023-08-06T10:30:43;0.30;;;0.30;;
35290;SDS011;21411;50.024;19.220;2023-08-06T10:33:11;0.60;;;0.60;;
35290;SDS011;21411;50.024;19.220;2023-08-06T10:38:20;1.30;;;0.40;;
35290;SDS011;21411;50.024;19.220;2023-08-06T10:43:25;0.90;;;0.50;;
35290;SDS011;21411;50.024;19.220;2023-08-06T10:45:51;0.70;;;0.40;;
35290;SDS011;21411;50.024;19.220;2023-08-06T10:51:11;0.40;;;0.40;;
35290;SDS011;21411;50.024;19.220;2023-08-06T10:53:42;0.60;;;0.40;;
35290;SDS011;21411;50.024;19.220;2023-08-06T10:56:21;1.50;;;0.70;;
35290;SDS011;21411;50.024;19.220;2023-08-06T10:58:49;0.50;;;0.50;;
35290;SDS011;21411;50.024;19.220;2023-08-06T11:01:17;1.00;;;0.60;;
35290;SDS011;21411;50.024;19.220;2023-08-06T11:03:44;0.90;;;0.40;;
35290;SDS011;21411;50.024;19.220;2023-08-06T11:06:17;0.30;;;0.30;;
35290;SDS011;21411;50.024;19.220;2023-08-06T11:08:47;0.40;;;0.20;;
35290;SDS011;21411;50.024;19.220;2023-08-06T11:11:16;0.70;;;0.40;;
35290;SDS011;21411;50.024;19.220;2023-08-06T11:13:43;0.30;;;0.30;;
35290;SDS011;21411;50.024;19.220;2023-08-06T11:16:14;0.60;;;0.20;;
35290;SDS011;21411;50.024;19.220;2023-08-06T11:18:42;0.30;;;0.30;;
35290;SDS011;21411;50.024;19.220;2023-08-06T11:21:09;1.00;;;0.40;;
35290;SDS011;21411;50.024;19.220;2023-08-06T11:23:36;0.60;;;0.20;;
35290;SDS011;21411;50.024;19.220;2023-08-06T11:26:02;0.40;;;0.30;;
35290;SDS011;21411;50.024;19.220;2023-08-06T11:28:29;0.60;;;0.40;;
35290;SDS011;21411;50.024;19.220;2023-08-06T11:30:57;1.20;;;0.50;;
35290;SDS011;21411;50.024;19.220;2023-08-06T11:33:27;1.00;;;0.30;;
35290;SDS011;21411;50.024;19.220;2023-08-06T11:35:55;0.80;;;0.40;;
35290;SDS011;21411;50.024;19.220;2023-08-06T11:38:29;2.40;;;0.50;;
35290;SDS011;21411;50.024;19.220;2023-08-06T11:40:56;0.40;;;0.30;;
35290;SDS011;21411;50.024;19.220;2023-08-06T11:43:23;0.30;;;0.30;;
35290;SDS011;21411;50.024;19.220;2023-08-06T11:45:50;1.10;;;0.50;;
35290;SDS011;21411;50.024;19.220;2023-08-06T11:48:20;1.30;;;0.40;;
35290;SDS011;21411;50.024;19.220;2023-08-06T11:50:47;0.40;;;0.40;;
35290;SDS011;21411;50.024;19.220;2023-08-06T11:53:14;0.50;;;0.30;;
35290;SDS011;21411;50.024;19.220;2023-08-06T11:55:41;0.80;;;0.40;;
35290;SDS011;21411;50.024;19.220;2023-08-06T11:58:09;0.60;;;0.40;;
35290;SDS011;21411;50.024;19.220;2023-08-06T12:00:38;1.40;;;0.50;;
35290;SDS011;21411;50.024;19.220;2023-08-06T12:03:05;0.90;;;0.70;;
35290;SDS011;21411;50.024;19.220;2023-08-06T12:05:31;1.00;;;0.50;;
35290;SDS011;21411;50.024;19.220;2023-08-06T12:10:29;0.80;;;0.70;;
35290;SDS011;21411;50.024;19.220;2023-08-06T12:12:57;0.80;;;0.60;;
35290;SDS011;21411;50.024;19.220;2023-08-06T12:15:24;0.60;;;0.50;;
35290;SDS011;21411;50.024;19.220;2023-08-06T12:17:51;1.40;;;0.60;;
35290;SDS011;21411;50.024;19.220;2023-08-06T12:20:17;0.60;;;0.50;;
35290;SDS011;21411;50.024;19.220;2023-08-06T12:22:44;0.80;;;0.40;;
35290;SDS011;21411;50.024;19.220;2023-08-06T12:25:12;0.70;;;0.40;;
35290;SDS011;21411;50.024;19.220;2023-08-06T12:27:39;1.10;;;0.40;;
35290;SDS011;21411;50.024;19.220;2023-08-06T12:30:10;0.50;;;0.30;;
35290;SDS011;21411;50.024;19.220;2023-08-06T12:32:39;0.50;;;0.40;;
35290;SDS011;21411;50.024;19.220;2023-08-06T12:35:06;0.70;;;0.40;;
35290;SDS011;21411;50.024;19.220;2023-08-06T12:37:34;0.50;;;0.50;;
35290;SDS011;21411;50.024;19.220;2023-08-06T12:40:02;1.20;;;1.10;;
35290;SDS011;21411;50.024;19.220;2023-08-06T12:42:28;1.20;;;1.10;;
35290;SDS011;21411;50.024;19.220;2023-08-06T12:44:55;0.70;;;0.60;;
35290;SDS011;21411;50.024;19.220;2023-08-06T12:47:22;1.00;;;0.40;;
35290;SDS011;21411;50.024;19.220;2023-08-06T12:49:49;0.40;;;0.40;;
35290;SDS011;21411;50.024;19.220;2023-08-06T12:52:16;1.00;;;0.40;;
35290;SDS011;21411;50.024;19.220;2023-08-06T12:54:42;1.50;;;0.50;;
35290;SDS011;21411;50.024;19.220;2023-08-06T12:57:09;2.50;;;1.50;;
35290;SDS011;21411;50.024;19.220;2023-08-06T12:59:36;1.70;;;1.40;;
35290;SDS011;21411;50.024;19.220;2023-08-06T13:02:03;4.00;;;2.40;;
35290;SDS011;21411;50.024;19.220;2023-08-06T13:04:30;3.00;;;1.60;;
35290;SDS011;21411;50.024;19.220;2023-08-06T13:06:57;4.60;;;2.50;;
35290;SDS011;21411;50.024;19.220;2023-08-06T13:09:23;1.50;;;1.10;;
35290;SDS011;21411;50.024;19.220;2023-08-06T13:11:51;0.60;;;0.40;;
35290;SDS011;21411;50.024;19.220;2023-08-06T13:14:18;2.00;;;0.80;;
35290;SDS011;21411;50.024;19.220;2023-08-06T13:16:44;0.60;;;0.60;;
35290;SDS011;21411;50.024;19.220;2023-08-06T13:19:11;3.40;;;2.30;;
35290;SDS011;21411;50.024;19.220;2023-08-06T13:24:16;6.80;;;3.60;;
35290;SDS011;21411;50.024;19.220;2023-08-06T13:26:43;2.60;;;2.00;;
35290;SDS011;21411;50.024;19.220;2023-08-06T13:29:09;1.50;;;0.90;;
35290;SDS011;21411;50.024;19.220;2023-08-06T13:31:36;1.10;;;0.60;;
35290;SDS011;21411;50.024;19.220;2023-08-06T13:34:03;0.90;;;0.30;;
35290;SDS011;21411;50.024;19.220;2023-08-06T13:36:31;1.90;;;1.40;;
35290;SDS011;21411;50.024;19.220;2023-08-06T13:38:57;3.80;;;2.50;;
35290;SDS011;21411;50.024;19.220;2023-08-06T13:41:24;1.10;;;1.00;;
35290;SDS011;21411;50.024;19.220;2023-08-06T13:43:50;3.60;;;2.60;;
35290;SDS011;21411;50.024;19.220;2023-08-06T13:46:18;0.80;;;0.80;;
35290;SDS011;21411;50.024;19.220;2023-08-06T13:48:46;0.40;;;0.40;;
35290;SDS011;21411;50.024;19.220;2023-08-06T13:51:14;0.40;;;0.40;;
35290;SDS011;21411;50.024;19.220;2023-08-06T13:53:41;2.50;;;1.50;;
35290;SDS011;21411;50.024;19.220;2023-08-06T13:56:08;6.10;;;3.60;;
35290;SDS011;21411;50.024;19.220;2023-08-06T13:58:38;7.20;;;4.10;;
35290;SDS011;21411;50.024;19.220;2023-08-06T14:01:05;0.90;;;0.60;;
35290;SDS011;21411;50.024;19.220;2023-08-06T14:03:32;0.20;;;0.20;;
35290;SDS011;21411;50.024;19.220;2023-08-06T14:05:59;1.30;;;0.30;;
35290;SDS011;21411;50.024;19.220;2023-08-06T14:08:25;1.20;;;0.70;;
35290;SDS011;21411;50.024;19.220;2023-08-06T14:10:52;1.10;;;1.00;;
35290;SDS011;21411;50.024;19.220;2023-08-06T14:13:19;2.20;;;1.90;;
35290;SDS011;21411;50.024;19.220;2023-08-06T14:15:45;1.40;;;0.90;;
35290;SDS011;21411;50.024;19.220;2023-08-06T14:18:13;2.10;;;1.10;;
35290;SDS011;21411;50.024;19.220;2023-08-06T14:20:41;1.10;;;0.60;;
35290;SDS011;21411;50.024;19.220;2023-08-06T14:23:08;0.80;;;0.50;;
35290;SDS011;21411;50.024;19.220;2023-08-06T14:25:35;0.60;;;0.60;;
35290;SDS011;21411;50.024;19.220;2023-08-06T14:28:02;2.50;;;2.00;;
35290;SDS011;21411;50.024;19.220;2023-08-06T14:30:28;1.90;;;1.60;;
35290;SDS011;21411;50.024;19.220;2023-08-06T14:32:55;3.00;;;2.20;;
35290;SDS011;21411;50.024;19.220;2023-08-06T14:35:21;2.70;;;0.70;;
35290;SDS011;21411;50.024;19.220;2023-08-06T14:37:48;0.50;;;0.30;;
35290;SDS011;21411;50.024;19.220;2023-08-06T14:40:15;0.40;;;0.40;;
35290;SDS011;21411;50.024;19.220;2023-08-06T14:42:41;1.00;;;0.50;;
35290;SDS011;21411;50.024;19.220;2023-08-06T14:45:08;0.40;;;0.40;;
35290;SDS011;21411;50.024;19.220;2023-08-06T14:47:35;0.50;;;0.50;;
35290;SDS011;21411;50.024;19.220;2023-08-06T14:50:02;1.00;;;0.90;;